sensor_id;sensor_type;location;lat;lon;timestamp;temperature;humidity
15394;DHT22;7795;47.986;11.868;2023-10-13T00:01:01;18.90;59.60
15394;DHT22;7795;47.986;11.868;2023-10-13T00:03:30;18.80;59.70
15394;DHT22;7795;47.986;11.868;2023-10-13T00:05:59;18.80;59.80
15394;DHT22;7795;47.986;11.868;2023-10-13T00:08:29;18.80;59.90
15394;DHT22;7795;47.986;11.868;2023-10-13T00:10:55;18.80;59.90
15394;DHT22;7795;47.986;11.868;2023-10-13T00:13:28;18.80;60.00
15394;DHT22;7795;47.986;11.868;2023-10-13T00:15:57;18.80;60.70
15394;DHT22;7795;47.986;11.868;2023-10-13T00:18:23;18.80;60.00
15394;DHT22;7795;47.986;11.868;2023-10-13T00:20:49;18.80;60.20
15394;DHT22;7795;47.986;11.868;2023-10-13T00:23:17;18.80;60.30
15394;DHT22;7795;47.986;11.868;2023-10-13T00:25:49;18.80;60.50
15394;DHT22;7795;47.986;11.868;2023-10-13T00:28:25;18.80;60.50
15394;DHT22;7795;47.986;11.868;2023-10-13T00:30:52;18.80;60.60
15394;DHT22;7795;47.986;11.868;2023-10-13T00:33:24;18.70;60.50
15394;DHT22;7795;47.986;11.868;2023-10-13T00:35:51;18.70;60.40
15394;DHT22;7795;47.986;11.868;2023-10-13T00:38:20;18.70;60.60
15394;DHT22;7795;47.986;11.868;2023-10-13T00:40:49;18.70;60.50
15394;DHT22;7795;47.986;11.868;2023-10-13T00:43:17;18.70;60.50
15394;DHT22;7795;47.986;11.868;2023-10-13T00:45:48;18.70;60.50
15394;DHT22;7795;47.986;11.868;2023-10-13T00:48:21;18.70;60.50
15394;DHT22;7795;47.986;11.868;2023-10-13T00:50:50;18.60;60.60
15394;DHT22;7795;47.986;11.868;2023-10-13T00:53:15;18.60;60.60
15394;DHT22;7795;47.986;11.868;2023-10-13T00:55:42;18.60;60.60
15394;DHT22;7795;47.986;11.868;2023-10-13T00:58:09;18.60;60.80
15394;DHT22;7795;47.986;11.868;2023-10-13T01:00:38;18.60;60.80
15394;DHT22;7795;47.986;11.868;2023-10-13T01:03:12;18.50;60.90
15394;DHT22;7795;47.986;11.868;2023-10-13T01:05:38;18.50;60.90
15394;DHT22;7795;47.986;11.868;2023-10-13T01:08:06;18.40;61.00
15394;DHT22;7795;47.986;11.868;2023-10-13T01:10:36;18.40;61.00
15394;DHT22;7795;47.986;11.868;2023-10-13T01:13:04;18.40;61.00
15394;DHT22;7795;47.986;11.868;2023-10-13T01:15:30;18.40;61.20
15394;DHT22;7795;47.986;11.868;2023-10-13T01:18:06;18.40;61.20
15394;DHT22;7795;47.986;11.868;2023-10-13T01:20:36;18.40;61.50
15394;DHT22;7795;47.986;11.868;2023-10-13T01:23:11;18.40;61.20
15394;DHT22;7795;47.986;11.868;2023-10-13T01:25:44;18.40;61.30
15394;DHT22;7795;47.986;11.868;2023-10-13T01:28:09;18.40;61.20
15394;DHT22;7795;47.986;11.868;2023-10-13T01:30:35;18.40;61.20
15394;DHT22;7795;47.986;11.868;2023-10-13T01:33:04;18.40;61.30
15394;DHT22;7795;47.986;11.868;2023-10-13T01:35:30;18.40;61.20
15394;DHT22;7795;47.986;11.868;2023-10-13T01:38:07;18.40;61.20
15394;DHT22;7795;47.986;11.868;2023-10-13T01:40:34;18.40;61.20
15394;DHT22;7795;47.986;11.868;2023-10-13T01:43:00;18.40;61.10
15394;DHT22;7795;47.986;11.868;2023-10-13T01:45:26;18.30;61.00
15394;DHT22;7795;47.986;11.868;2023-10-13T01:47:54;18.30;61.00
15394;DHT22;7795;47.986;11.868;2023-10-13T01:50:20;18.30;61.00
15394;DHT22;7795;47.986;11.868;2023-10-13T01:52:53;18.30;61.00
15394;DHT22;7795;47.986;11.868;2023-10-13T01:55:40;18.20;60.90
15394;DHT22;7795;47.986;11.868;2023-10-13T01:58:09;18.20;61.00
15394;DHT22;7795;47.986;11.868;2023-10-13T02:00:41;18.20;61.00
15394;DHT22;7795;47.986;11.868;2023-10-13T02:03:08;18.20;61.10
15394;DHT22;7795;47.986;11.868;2023-10-13T02:05:40;18.10;61.00
15394;DHT22;7795;47.986;11.868;2023-10-13T02:08:09;18.10;61.00
15394;DHT22;7795;47.986;11.868;2023-10-13T02:10:36;18.10;61.20
15394;DHT22;7795;47.986;11.868;2023-10-13T02:13:13;18.00;61.20
15394;DHT22;7795;47.986;11.868;2023-10-13T02:15:42;18.00;61.40
15394;DHT22;7795;47.986;11.868;2023-10-13T02:18:10;18.00;61.30
15394;DHT22;7795;47.986;11.868;2023-10-13T02:20:35;17.90;61.30
15394;DHT22;7795;47.986;11.868;2023-10-13T02:23:09;17.90;61.40
15394;DHT22;7795;47.986;11.868;2023-10-13T02:25:36;17.80;61.30
15394;DHT22;7795;47.986;11.868;2023-10-13T02:28:10;17.80;61.50
15394;DHT22;7795;47.986;11.868;2023-10-13T02:30:56;17.80;61.60
15394;DHT22;7795;47.986;11.868;2023-10-13T02:33:23;17.70;61.60
15394;DHT22;7795;47.986;11.868;2023-10-13T02:35:55;17.70;61.60
15394;DHT22;7795;47.986;11.868;2023-10-13T02:38:21;17.70;61.80
15394;DHT22;7795;47.986;11.868;2023-10-13T02:41:13;17.60;61.80
15394;DHT22;7795;47.986;11.868;2023-10-13T02:44:07;17.60;61.90
15394;DHT22;7795;47.986;11.868;2023-10-13T02:46:34;17.60;61.90
15394;DHT22;7795;47.986;11.868;2023-10-13T02:49:05;17.60;62.00
15394;DHT22;7795;47.986;11.868;2023-10-13T02:51:38;17.50;62.10
15394;DHT22;7795;47.986;11.868;2023-10-13T02:54:07;17.50;62.20
15394;DHT22;7795;47.986;11.868;2023-10-13T02:56:37;17.50;62.20
15394;DHT22;7795;47.986;11.868;2023-10-13T02:59:03;17.50;62.30
15394;DHT22;7795;47.986;11.868;2023-10-13T03:01:33;17.40;62.30
15394;DHT22;7795;47.986;11.868;2023-10-13T03:04:03;17.40;62.40
15394;DHT22;7795;47.986;11.868;2023-10-13T03:06:29;17.40;62.40
15394;DHT22;7795;47.986;11.868;2023-10-13T03:08:59;17.30;62.40
15394;DHT22;7795;47.986;11.868;2023-10-13T03:11:40;17.30;62.40
15394;DHT22;7795;47.986;11.868;2023-10-13T03:14:08;17.30;62.30
15394;DHT22;7795;47.986;11.868;2023-10-13T03:16:35;17.30;62.30
15394;DHT22;7795;47.986;11.868;2023-10-13T03:19:02;17.20;62.30
15394;DHT22;7795;47.986;11.868;2023-10-13T03:21:33;17.10;62.10
15394;DHT22;7795;47.986;11.868;2023-10-13T03:24:02;17.10;62.10
15394;DHT22;7795;47.986;11.868;2023-10-13T03:26:33;17.10;62.10
15394;DHT22;7795;47.986;11.868;2023-10-13T03:29:01;17.00;62.10
15394;DHT22;7795;47.986;11.868;2023-10-13T03:31:28;17.00;62.10
15394;DHT22;7795;47.986;11.868;2023-10-13T03:33:56;17.00;62.20
15394;DHT22;7795;47.986;11.868;2023-10-13T03:36:26;16.90;62.30
15394;DHT22;7795;47.986;11.868;2023-10-13T03:39:21;16.90;62.30
15394;DHT22;7795;47.986;11.868;2023-10-13T03:41:53;16.80;62.10
15394;DHT22;7795;47.986;11.868;2023-10-13T03:44:19;16.80;62.30
15394;DHT22;7795;47.986;11.868;2023-10-13T03:46:46;16.70;62.30
15394;DHT22;7795;47.986;11.868;2023-10-13T03:49:15;16.70;62.40
15394;DHT22;7795;47.986;11.868;2023-10-13T03:51:45;16.70;62.50
15394;DHT22;7795;47.986;11.868;2023-10-13T03:54:13;16.60;62.50
15394;DHT22;7795;47.986;11.868;2023-10-13T03:56:42;16.50;62.50
15394;DHT22;7795;47.986;11.868;2023-10-13T03:59:10;16.50;62.70
15394;DHT22;7795;47.986;11.868;2023-10-13T04:01:43;16.50;62.70
15394;DHT22;7795;47.986;11.868;2023-10-13T04:04:15;16.40;62.70
15394;DHT22;7795;47.986;11.868;2023-10-13T04:06:41;16.30;62.70
15394;DHT22;7795;47.986;11.868;2023-10-13T04:09:16;16.30;62.80
15394;DHT22;7795;47.986;11.868;2023-10-13T04:11:54;16.20;63.10
15394;DHT22;7795;47.986;11.868;2023-10-13T04:14:30;16.20;63.80
15394;DHT22;7795;47.986;11.868;2023-10-13T04:17:14;16.10;63.20
15394;DHT22;7795;47.986;11.868;2023-10-13T04:19:42;16.10;63.30
15394;DHT22;7795;47.986;11.868;2023-10-13T04:22:26;16.00;63.40
15394;DHT22;7795;47.986;11.868;2023-10-13T04:25:12;16.00;63.40
15394;DHT22;7795;47.986;11.868;2023-10-13T04:27:56;15.90;63.40
15394;DHT22;7795;47.986;11.868;2023-10-13T04:30:40;15.90;63.50
15394;DHT22;7795;47.986;11.868;2023-10-13T04:33:21;15.80;63.60
15394;DHT22;7795;47.986;11.868;2023-10-13T04:36:02;15.80;63.70
15394;DHT22;7795;47.986;11.868;2023-10-13T04:38:39;15.80;64.00
15394;DHT22;7795;47.986;11.868;2023-10-13T04:41:24;15.70;64.00
15394;DHT22;7795;47.986;11.868;2023-10-13T04:43:50;15.70;64.10
15394;DHT22;7795;47.986;11.868;2023-10-13T04:46:22;15.70;64.10
15394;DHT22;7795;47.986;11.868;2023-10-13T04:49:01;15.60;64.20
15394;DHT22;7795;47.986;11.868;2023-10-13T04:51:36;15.60;64.30
15394;DHT22;7795;47.986;11.868;2023-10-13T04:54:21;15.50;64.40
15394;DHT22;7795;47.986;11.868;2023-10-13T04:57:13;15.50;64.40
15394;DHT22;7795;47.986;11.868;2023-10-13T04:59:45;15.50;64.40
15394;DHT22;7795;47.986;11.868;2023-10-13T05:02:29;15.50;64.60
15394;DHT22;7795;47.986;11.868;2023-10-13T05:05:00;15.50;64.60
15394;DHT22;7795;47.986;11.868;2023-10-13T05:07:46;15.50;64.70
15394;DHT22;7795;47.986;11.868;2023-10-13T05:10:31;15.40;64.80
15394;DHT22;7795;47.986;11.868;2023-10-13T05:13:15;15.40;64.80
15394;DHT22;7795;47.986;11.868;2023-10-13T05:16:00;15.40;64.80
15394;DHT22;7795;47.986;11.868;2023-10-13T05:18:44;15.30;64.70
15394;DHT22;7795;47.986;11.868;2023-10-13T05:21:29;15.30;64.70
15394;DHT22;7795;47.986;11.868;2023-10-13T05:24:14;15.30;64.80
15394;DHT22;7795;47.986;11.868;2023-10-13T05:26:59;15.30;65.00
15394;DHT22;7795;47.986;11.868;2023-10-13T05:29:45;15.20;65.00
15394;DHT22;7795;47.986;11.868;2023-10-13T05:32:30;15.20;65.10
15394;DHT22;7795;47.986;11.868;2023-10-13T05:35:15;15.10;65.10
15394;DHT22;7795;47.986;11.868;2023-10-13T05:37:59;15.10;65.20
15394;DHT22;7795;47.986;11.868;2023-10-13T05:40:52;15.10;65.20
15394;DHT22;7795;47.986;11.868;2023-10-13T05:43:37;15.00;65.60
15394;DHT22;7795;47.986;11.868;2023-10-13T05:46:21;15.00;65.30
15394;DHT22;7795;47.986;11.868;2023-10-13T05:48:53;15.00;65.50
15394;DHT22;7795;47.986;11.868;2023-10-13T05:51:25;14.90;65.60
15394;DHT22;7795;47.986;11.868;2023-10-13T05:54:13;14.90;65.60
15394;DHT22;7795;47.986;11.868;2023-10-13T05:56:41;14.90;65.60
15394;DHT22;7795;47.986;11.868;2023-10-13T05:59:26;14.90;65.90
15394;DHT22;7795;47.986;11.868;2023-10-13T06:02:10;14.90;65.90
15394;DHT22;7795;47.986;11.868;2023-10-13T06:04:55;14.90;65.90
15394;DHT22;7795;47.986;11.868;2023-10-13T06:07:40;14.90;66.00
15394;DHT22;7795;47.986;11.868;2023-10-13T06:10:24;14.90;66.10
15394;DHT22;7795;47.986;11.868;2023-10-13T06:13:10;14.90;66.10
15394;DHT22;7795;47.986;11.868;2023-10-13T06:15:54;14.90;66.20
15394;DHT22;7795;47.986;11.868;2023-10-13T06:18:38;14.90;66.20
15394;DHT22;7795;47.986;11.868;2023-10-13T06:21:22;14.90;66.20
15394;DHT22;7795;47.986;11.868;2023-10-13T06:24:07;14.90;66.20
15394;DHT22;7795;47.986;11.868;2023-10-13T06:26:51;14.90;66.20
15394;DHT22;7795;47.986;11.868;2023-10-13T06:29:37;14.90;66.30
15394;DHT22;7795;47.986;11.868;2023-10-13T06:32:03;14.90;66.50
15394;DHT22;7795;47.986;11.868;2023-10-13T06:34:36;14.90;66.50
15394;DHT22;7795;47.986;11.868;2023-10-13T06:37:10;14.90;66.60
15394;DHT22;7795;47.986;11.868;2023-10-13T06:39:50;14.90;66.60
15394;DHT22;7795;47.986;11.868;2023-10-13T06:42:16;15.00;66.80
15394;DHT22;7795;47.986;11.868;2023-10-13T06:44:45;15.00;66.90
15394;DHT22;7795;47.986;11.868;2023-10-13T06:47:11;15.00;67.00
15394;DHT22;7795;47.986;11.868;2023-10-13T06:49:37;15.10;67.10
15394;DHT22;7795;47.986;11.868;2023-10-13T06:52:04;15.10;67.10
15394;DHT22;7795;47.986;11.868;2023-10-13T06:54:32;15.20;67.10
15394;DHT22;7795;47.986;11.868;2023-10-13T06:56:59;15.20;68.00
15394;DHT22;7795;47.986;11.868;2023-10-13T06:59:24;15.20;67.20
15394;DHT22;7795;47.986;11.868;2023-10-13T07:01:53;15.20;67.30
15394;DHT22;7795;47.986;11.868;2023-10-13T07:04:19;15.30;67.50
15394;DHT22;7795;47.986;11.868;2023-10-13T07:06:47;15.30;67.50
15394;DHT22;7795;47.986;11.868;2023-10-13T07:09:16;15.40;67.60
15394;DHT22;7795;47.986;11.868;2023-10-13T07:12:00;15.40;67.70
15394;DHT22;7795;47.986;11.868;2023-10-13T07:14:27;15.50;67.80
15394;DHT22;7795;47.986;11.868;2023-10-13T07:16:57;15.50;67.90
15394;DHT22;7795;47.986;11.868;2023-10-13T07:19:26;15.60;68.30
15394;DHT22;7795;47.986;11.868;2023-10-13T07:21:55;15.70;68.00
15394;DHT22;7795;47.986;11.868;2023-10-13T07:24:25;15.80;68.00
15394;DHT22;7795;47.986;11.868;2023-10-13T07:26:52;15.80;67.90
15394;DHT22;7795;47.986;11.868;2023-10-13T07:29:28;15.90;67.90
15394;DHT22;7795;47.986;11.868;2023-10-13T07:31:55;15.90;67.90
15394;DHT22;7795;47.986;11.868;2023-10-13T07:34:21;16.00;67.90
15394;DHT22;7795;47.986;11.868;2023-10-13T07:36:57;16.10;68.00
15394;DHT22;7795;47.986;11.868;2023-10-13T07:39:26;16.20;68.00
15394;DHT22;7795;47.986;11.868;2023-10-13T07:41:53;16.30;68.00
15394;DHT22;7795;47.986;11.868;2023-10-13T07:44:20;16.40;67.90
15394;DHT22;7795;47.986;11.868;2023-10-13T07:46:51;16.50;67.80
15394;DHT22;7795;47.986;11.868;2023-10-13T07:49:29;16.60;67.80
15394;DHT22;7795;47.986;11.868;2023-10-13T07:51:59;16.70;67.90
15394;DHT22;7795;47.986;11.868;2023-10-13T07:54:27;16.80;67.80
15394;DHT22;7795;47.986;11.868;2023-10-13T07:56:52;16.90;67.80
15394;DHT22;7795;47.986;11.868;2023-10-13T07:59:20;17.00;67.70
15394;DHT22;7795;47.986;11.868;2023-10-13T08:01:47;17.10;67.60
15394;DHT22;7795;47.986;11.868;2023-10-13T08:04:21;17.30;67.50
15394;DHT22;7795;47.986;11.868;2023-10-13T08:06:55;17.40;67.20
15394;DHT22;7795;47.986;11.868;2023-10-13T08:09:28;17.50;67.00
15394;DHT22;7795;47.986;11.868;2023-10-13T08:12:06;17.60;66.70
15394;DHT22;7795;47.986;11.868;2023-10-13T08:14:35;17.80;67.20
15394;DHT22;7795;47.986;11.868;2023-10-13T08:17:04;17.90;66.90
15394;DHT22;7795;47.986;11.868;2023-10-13T08:19:34;18.10;65.80
15394;DHT22;7795;47.986;11.868;2023-10-13T08:22:14;18.20;65.30
15394;DHT22;7795;47.986;11.868;2023-10-13T08:24:43;18.40;65.00
15394;DHT22;7795;47.986;11.868;2023-10-13T08:27:08;18.50;64.60
15394;DHT22;7795;47.986;11.868;2023-10-13T08:29:40;18.60;64.30
15394;DHT22;7795;47.986;11.868;2023-10-13T08:32:21;18.80;64.10
15394;DHT22;7795;47.986;11.868;2023-10-13T08:34:53;19.00;63.80
15394;DHT22;7795;47.986;11.868;2023-10-13T08:37:20;19.20;63.40
15394;DHT22;7795;47.986;11.868;2023-10-13T08:39:49;19.30;63.00
15394;DHT22;7795;47.986;11.868;2023-10-13T08:42:25;19.40;62.80
15394;DHT22;7795;47.986;11.868;2023-10-13T08:45:01;19.60;62.60
15394;DHT22;7795;47.986;11.868;2023-10-13T08:47:30;19.80;62.40
15394;DHT22;7795;47.986;11.868;2023-10-13T08:50:02;19.90;62.40
15394;DHT22;7795;47.986;11.868;2023-10-13T08:52:38;20.00;62.10
15394;DHT22;7795;47.986;11.868;2023-10-13T08:55:15;20.20;61.80
15394;DHT22;7795;47.986;11.868;2023-10-13T08:57:59;20.30;61.80
15394;DHT22;7795;47.986;11.868;2023-10-13T09:00:39;20.40;61.60
15394;DHT22;7795;47.986;11.868;2023-10-13T09:03:21;20.60;61.50
15394;DHT22;7795;47.986;11.868;2023-10-13T09:06:04;20.70;62.10
15394;DHT22;7795;47.986;11.868;2023-10-13T09:08:33;20.90;61.10
15394;DHT22;7795;47.986;11.868;2023-10-13T09:11:22;21.00;61.00
15394;DHT22;7795;47.986;11.868;2023-10-13T09:13:52;21.10;60.80
15394;DHT22;7795;47.986;11.868;2023-10-13T09:16:18;21.20;60.40
15394;DHT22;7795;47.986;11.868;2023-10-13T09:19:10;21.40;60.30
15394;DHT22;7795;47.986;11.868;2023-10-13T09:21:40;21.50;60.10
15394;DHT22;7795;47.986;11.868;2023-10-13T09:24:09;21.60;59.90
15394;DHT22;7795;47.986;11.868;2023-10-13T09:26:48;21.70;59.60
15394;DHT22;7795;47.986;11.868;2023-10-13T09:29:19;21.80;59.70
15394;DHT22;7795;47.986;11.868;2023-10-13T09:31:46;21.90;59.30
15394;DHT22;7795;47.986;11.868;2023-10-13T09:34:23;22.00;59.10
15394;DHT22;7795;47.986;11.868;2023-10-13T09:36:57;22.10;58.60
15394;DHT22;7795;47.986;11.868;2023-10-13T09:39:25;22.30;58.20
15394;DHT22;7795;47.986;11.868;2023-10-13T09:42:27;22.40;57.70
15394;DHT22;7795;47.986;11.868;2023-10-13T09:44:52;22.50;57.70
15394;DHT22;7795;47.986;11.868;2023-10-13T09:47:22;22.60;57.40
15394;DHT22;7795;47.986;11.868;2023-10-13T09:50:02;22.70;56.90
15394;DHT22;7795;47.986;11.868;2023-10-13T09:52:31;22.90;56.80
15394;DHT22;7795;47.986;11.868;2023-10-13T09:55:11;22.90;56.40
15394;DHT22;7795;47.986;11.868;2023-10-13T09:57:43;23.10;55.40
15394;DHT22;7795;47.986;11.868;2023-10-13T10:00:13;23.20;55.30
15394;DHT22;7795;47.986;11.868;2023-10-13T10:03:00;23.30;55.50
15394;DHT22;7795;47.986;11.868;2023-10-13T10:05:41;23.40;55.70
15394;DHT22;7795;47.986;11.868;2023-10-13T10:08:07;23.50;55.50
15394;DHT22;7795;47.986;11.868;2023-10-13T10:13:34;23.70;54.60
15394;DHT22;7795;47.986;11.868;2023-10-13T10:16:08;23.80;54.60
15394;DHT22;7795;47.986;11.868;2023-10-13T10:18:40;23.90;54.30
15394;DHT22;7795;47.986;11.868;2023-10-13T10:21:06;24.00;54.80
15394;DHT22;7795;47.986;11.868;2023-10-13T10:23:36;24.10;54.50
15394;DHT22;7795;47.986;11.868;2023-10-13T10:26:13;24.20;54.50
15394;DHT22;7795;47.986;11.868;2023-10-13T10:28:42;24.30;53.50
15394;DHT22;7795;47.986;11.868;2023-10-13T10:31:09;24.30;53.90
15394;DHT22;7795;47.986;11.868;2023-10-13T10:33:38;24.30;54.20
15394;DHT22;7795;47.986;11.868;2023-10-13T10:36:05;24.40;54.30
15394;DHT22;7795;47.986;11.868;2023-10-13T10:38:31;24.40;54.30
15394;DHT22;7795;47.986;11.868;2023-10-13T10:40:58;24.40;54.50
15394;DHT22;7795;47.986;11.868;2023-10-13T10:43:27;24.40;54.60
15394;DHT22;7795;47.986;11.868;2023-10-13T10:45:54;24.40;55.10
15394;DHT22;7795;47.986;11.868;2023-10-13T10:48:26;24.40;54.70
15394;DHT22;7795;47.986;11.868;2023-10-13T10:51:00;24.40;54.80
15394;DHT22;7795;47.986;11.868;2023-10-13T10:53:34;24.40;54.80
15394;DHT22;7795;47.986;11.868;2023-10-13T10:56:09;24.40;54.70
15394;DHT22;7795;47.986;11.868;2023-10-13T10:58:54;24.40;54.50
15394;DHT22;7795;47.986;11.868;2023-10-13T11:01:23;24.50;54.40
15394;DHT22;7795;47.986;11.868;2023-10-13T11:03:54;24.40;54.00
15394;DHT22;7795;47.986;11.868;2023-10-13T11:06:23;24.50;53.20
15394;DHT22;7795;47.986;11.868;2023-10-13T11:08:50;24.50;53.40
15394;DHT22;7795;47.986;11.868;2023-10-13T11:11:29;24.60;54.20
15394;DHT22;7795;47.986;11.868;2023-10-13T11:14:01;24.60;53.00
15394;DHT22;7795;47.986;11.868;2023-10-13T11:16:48;24.70;53.10
15394;DHT22;7795;47.986;11.868;2023-10-13T11:19:19;24.70;53.80
15394;DHT22;7795;47.986;11.868;2023-10-13T11:21:46;24.80;52.80
15394;DHT22;7795;47.986;11.868;2023-10-13T11:24:13;24.80;52.80
15394;DHT22;7795;47.986;11.868;2023-10-13T11:26:39;24.90;52.60
15394;DHT22;7795;47.986;11.868;2023-10-13T11:29:32;25.00;52.40
15394;DHT22;7795;47.986;11.868;2023-10-13T11:32:01;25.00;51.90
15394;DHT22;7795;47.986;11.868;2023-10-13T11:34:28;25.10;52.20
15394;DHT22;7795;47.986;11.868;2023-10-13T11:37:05;25.20;52.00
15394;DHT22;7795;47.986;11.868;2023-10-13T11:39:51;25.20;51.60
15394;DHT22;7795;47.986;11.868;2023-10-13T11:42:17;25.30;51.50
15394;DHT22;7795;47.986;11.868;2023-10-13T11:44:44;25.40;51.50
15394;DHT22;7795;47.986;11.868;2023-10-13T11:47:10;25.50;51.20
15394;DHT22;7795;47.986;11.868;2023-10-13T11:49:55;25.50;51.20
15394;DHT22;7795;47.986;11.868;2023-10-13T11:52:23;25.60;50.90
15394;DHT22;7795;47.986;11.868;2023-10-13T11:54:52;25.60;50.70
15394;DHT22;7795;47.986;11.868;2023-10-13T11:57:18;25.70;50.60
15394;DHT22;7795;47.986;11.868;2023-10-13T11:59:46;25.80;50.50
15394;DHT22;7795;47.986;11.868;2023-10-13T12:02:20;25.90;50.00
15394;DHT22;7795;47.986;11.868;2023-10-13T12:04:52;25.90;50.00
15394;DHT22;7795;47.986;11.868;2023-10-13T12:07:20;26.00;50.00
15394;DHT22;7795;47.986;11.868;2023-10-13T12:09:49;26.00;49.60
15394;DHT22;7795;47.986;11.868;2023-10-13T12:12:21;26.10;49.20
15394;DHT22;7795;47.986;11.868;2023-10-13T12:14:48;26.20;49.40
15394;DHT22;7795;47.986;11.868;2023-10-13T12:17:24;26.20;48.70
15394;DHT22;7795;47.986;11.868;2023-10-13T12:19:53;26.30;48.70
15394;DHT22;7795;47.986;11.868;2023-10-13T12:22:19;26.30;48.40
15394;DHT22;7795;47.986;11.868;2023-10-13T12:24:54;26.40;48.50
15394;DHT22;7795;47.986;11.868;2023-10-13T12:27:19;26.50;48.50
15394;DHT22;7795;47.986;11.868;2023-10-13T12:29:46;26.50;48.40
15394;DHT22;7795;47.986;11.868;2023-10-13T12:32:14;26.60;48.50
15394;DHT22;7795;47.986;11.868;2023-10-13T12:34:41;26.60;48.10
15394;DHT22;7795;47.986;11.868;2023-10-13T12:37:26;26.70;48.10
15394;DHT22;7795;47.986;11.868;2023-10-13T12:40:05;26.70;47.70
15394;DHT22;7795;47.986;11.868;2023-10-13T12:42:49;26.80;47.30
15394;DHT22;7795;47.986;11.868;2023-10-13T12:45:38;26.90;47.00
15394;DHT22;7795;47.986;11.868;2023-10-13T12:48:24;26.90;46.10
15394;DHT22;7795;47.986;11.868;2023-10-13T12:51:08;26.90;46.20
15394;DHT22;7795;47.986;11.868;2023-10-13T12:53:46;27.00;46.30
15394;DHT22;7795;47.986;11.868;2023-10-13T12:56:13;27.00;46.10
15394;DHT22;7795;47.986;11.868;2023-10-13T12:58:39;27.10;45.90
15394;DHT22;7795;47.986;11.868;2023-10-13T13:01:04;27.10;45.90
15394;DHT22;7795;47.986;11.868;2023-10-13T13:03:33;27.10;45.50
15394;DHT22;7795;47.986;11.868;2023-10-13T13:05:59;27.10;45.40
15394;DHT22;7795;47.986;11.868;2023-10-13T13:08:28;27.20;45.70
15394;DHT22;7795;47.986;11.868;2023-10-13T13:11:00;27.30;45.50
15394;DHT22;7795;47.986;11.868;2023-10-13T13:13:29;27.30;45.40
15394;DHT22;7795;47.986;11.868;2023-10-13T13:15:57;27.30;45.40
15394;DHT22;7795;47.986;11.868;2023-10-13T13:18:25;27.40;44.90
15394;DHT22;7795;47.986;11.868;2023-10-13T13:20:58;27.40;45.10
15394;DHT22;7795;47.986;11.868;2023-10-13T13:23:26;27.40;44.40
15394;DHT22;7795;47.986;11.868;2023-10-13T13:25:51;27.50;45.10
15394;DHT22;7795;47.986;11.868;2023-10-13T13:28:17;27.50;45.30
15394;DHT22;7795;47.986;11.868;2023-10-13T13:30:43;27.50;44.90
15394;DHT22;7795;47.986;11.868;2023-10-13T13:33:09;27.50;44.80
15394;DHT22;7795;47.986;11.868;2023-10-13T13:35:38;27.60;44.90
15394;DHT22;7795;47.986;11.868;2023-10-13T13:38:06;27.60;44.70
15394;DHT22;7795;47.986;11.868;2023-10-13T13:41:01;27.60;44.60
15394;DHT22;7795;47.986;11.868;2023-10-13T13:43:28;27.60;44.40
15394;DHT22;7795;47.986;11.868;2023-10-13T13:46:03;27.70;44.40
15394;DHT22;7795;47.986;11.868;2023-10-13T13:48:29;27.70;44.60
15394;DHT22;7795;47.986;11.868;2023-10-13T13:50:56;27.70;44.40
15394;DHT22;7795;47.986;11.868;2023-10-13T13:53:31;27.70;44.20
15394;DHT22;7795;47.986;11.868;2023-10-13T13:56:00;27.70;43.90
15394;DHT22;7795;47.986;11.868;2023-10-13T13:58:26;27.70;43.90
15394;DHT22;7795;47.986;11.868;2023-10-13T14:00:52;27.80;44.00
15394;DHT22;7795;47.986;11.868;2023-10-13T14:03:17;27.80;44.10
15394;DHT22;7795;47.986;11.868;2023-10-13T14:05:56;27.80;44.10
15394;DHT22;7795;47.986;11.868;2023-10-13T14:08:24;27.80;44.50
15394;DHT22;7795;47.986;11.868;2023-10-13T14:10:52;27.80;44.60
15394;DHT22;7795;47.986;11.868;2023-10-13T14:13:53;27.80;44.50
15394;DHT22;7795;47.986;11.868;2023-10-13T14:16:21;27.80;44.00
15394;DHT22;7795;47.986;11.868;2023-10-13T14:18:50;27.80;44.10
15394;DHT22;7795;47.986;11.868;2023-10-13T14:21:16;27.80;44.20
15394;DHT22;7795;47.986;11.868;2023-10-13T14:23:43;27.80;44.30
15394;DHT22;7795;47.986;11.868;2023-10-13T14:26:13;27.80;44.40
15394;DHT22;7795;47.986;11.868;2023-10-13T14:28:39;27.80;44.30
15394;DHT22;7795;47.986;11.868;2023-10-13T14:31:16;27.80;44.30
15394;DHT22;7795;47.986;11.868;2023-10-13T14:33:42;27.80;44.30
15394;DHT22;7795;47.986;11.868;2023-10-13T14:36:09;27.80;44.30
15394;DHT22;7795;47.986;11.868;2023-10-13T14:38:35;27.70;44.30
15394;DHT22;7795;47.986;11.868;2023-10-13T14:41:01;27.70;44.20
15394;DHT22;7795;47.986;11.868;2023-10-13T14:43:28;27.70;44.40
15394;DHT22;7795;47.986;11.868;2023-10-13T14:45:54;27.70;44.60
15394;DHT22;7795;47.986;11.868;2023-10-13T14:48:19;27.70;45.30
15394;DHT22;7795;47.986;11.868;2023-10-13T14:50:45;27.70;45.50
15394;DHT22;7795;47.986;11.868;2023-10-13T14:53:11;27.60;44.90
15394;DHT22;7795;47.986;11.868;2023-10-13T14:55:37;27.60;45.00
15394;DHT22;7795;47.986;11.868;2023-10-13T14:58:05;27.60;45.10
15394;DHT22;7795;47.986;11.868;2023-10-13T15:00:34;27.50;45.20
15394;DHT22;7795;47.986;11.868;2023-10-13T15:03:01;27.50;45.30
15394;DHT22;7795;47.986;11.868;2023-10-13T15:05:26;27.50;45.50
15394;DHT22;7795;47.986;11.868;2023-10-13T15:07:55;27.50;45.60
15394;DHT22;7795;47.986;11.868;2023-10-13T15:10:21;27.50;45.80
15394;DHT22;7795;47.986;11.868;2023-10-13T15:12:50;27.40;45.90
15394;DHT22;7795;47.986;11.868;2023-10-13T15:15:15;27.40;46.10
15394;DHT22;7795;47.986;11.868;2023-10-13T15:17:43;27.40;46.20
15394;DHT22;7795;47.986;11.868;2023-10-13T15:20:09;27.30;46.30
15394;DHT22;7795;47.986;11.868;2023-10-13T15:22:41;27.30;46.50
15394;DHT22;7795;47.986;11.868;2023-10-13T15:25:07;27.20;46.60
15394;DHT22;7795;47.986;11.868;2023-10-13T15:27:46;27.20;46.70
15394;DHT22;7795;47.986;11.868;2023-10-13T15:30:21;27.20;46.80
15394;DHT22;7795;47.986;11.868;2023-10-13T15:32:50;27.10;46.90
15394;DHT22;7795;47.986;11.868;2023-10-13T15:35:17;27.10;47.10
15394;DHT22;7795;47.986;11.868;2023-10-13T15:37:43;27.00;47.30
15394;DHT22;7795;47.986;11.868;2023-10-13T15:40:13;27.00;47.50
15394;DHT22;7795;47.986;11.868;2023-10-13T15:42:41;26.90;47.90
15394;DHT22;7795;47.986;11.868;2023-10-13T15:45:07;26.90;48.10
15394;DHT22;7795;47.986;11.868;2023-10-13T15:47:42;26.80;48.30
15394;DHT22;7795;47.986;11.868;2023-10-13T15:50:13;26.70;48.30
15394;DHT22;7795;47.986;11.868;2023-10-13T15:52:41;26.60;48.60
15394;DHT22;7795;47.986;11.868;2023-10-13T15:55:12;26.60;48.70
15394;DHT22;7795;47.986;11.868;2023-10-13T15:57:38;26.50;48.70
15394;DHT22;7795;47.986;11.868;2023-10-13T16:00:05;26.50;49.10
15394;DHT22;7795;47.986;11.868;2023-10-13T16:02:50;26.40;49.40
15394;DHT22;7795;47.986;11.868;2023-10-13T16:05:17;26.30;49.60